LFRQ/UIP METAR and TAF weather

Enter ICAO airport designator
Station Type Date Time Source
LFRQ METAR 2020/09/21 09:30 UTC NOAA

LFRQ 210930Z AUTO 31004KT 9999 OVC008 18/16 Q1017 NOSIG


Station Type Date Time Source
LFRQ Decoded METAR 2020/09/21 09:30 UTC NOAA

Quimper, France (LFRQ) 47-58N 004-10W 94M
Sep 21, 2020 - 05:30 AM EDT / 2020.09.21 0930 UTC
Wind: from the NW (310 degrees) at 5 MPH (4 KT):0
Visibility: greater than 7 mile(s):0
Sky conditions: overcast
Temperature: 64 F (18 C)
Dew Point: 60 F (16 C)
Relative Humidity: 88%
Pressure (altimeter): 30.03 in. Hg (1017 hPa)
ob: LFRQ 210930Z AUTO 31004KT 9999 OVC008 18/16 Q1017 NOSIG
cycle: 9

Station Type Date Time Source
LFRQ TAF 2020/09/21 06:21 UTC NOAA

TAF LFRQ 210500Z 2106/2206 VRB03KT 6000 OVC008
TEMPO 2106/2109 0800 FG VV///
TEMPO 2112/2118 BKN014
BECMG 2118/2121 3000 BR OVC006

Example: see airport list